Terminal Aerodrome Forecast
Issued by NWS

Home | Current Version | Previous Version | Text Only | Print | Product List | Glossary On
Versions: 1 2 3 4 5 6 7 8 9 10 11 12 13 14 15 16 17 18 19 20 21 22 23 24 25 26 27 28 29 30 31 32 33 34 35 36 37 38
000
FTUS42 KCAE 040500
TAFCUB
TAF
KCUB 040534Z 0406/0506 00000KT 1/4SM -DZ FG OVC002 WS020/21035KT
     FM041500 23008KT 5SM BR BKN012
     FM041700 23016G24KT P6SM SCT025 BKN250
     FM042300 22005KT P6SM OVC100=

USA.gov is the U.S. government's official web portal to all federal, state and local government web resources and services.